sensor_id;sensor_type;location;lat;lon;timestamp;pressure;altitude;pressure_sealevel;temperature;humidity
78198;BME280;67472;51.554;7.812;2024-02-04T00:02:07;101458.53;;;11.59;100.00
78198;BME280;67472;51.554;7.812;2024-02-04T00:04:58;101460.66;;;11.43;100.00
78198;BME280;67472;51.554;7.812;2024-02-04T00:07:47;101456.97;;;11.57;100.00
78198;BME280;67472;51.554;7.812;2024-02-04T00:10:33;101452.88;;;11.64;100.00
78198;BME280;67472;51.554;7.812;2024-02-04T00:13:20;101445.31;;;11.59;100.00
78198;BME280;67472;51.554;7.812;2024-02-04T00:16:07;101446.25;;;11.58;100.00
78198;BME280;67472;51.554;7.812;2024-02-04T00:18:54;101452.06;;;11.63;100.00
78198;BME280;67472;51.554;7.812;2024-02-04T00:21:40;101442.31;;;11.64;100.00
78198;BME280;67472;51.554;7.812;2024-02-04T00:24:28;101438.53;;;11.55;100.00
78198;BME280;67472;51.554;7.812;2024-02-04T00:27:16;101445.59;;;11.44;100.00
78198;BME280;67472;51.554;7.812;2024-02-04T00:30:04;101436.53;;;11.59;100.00
78198;BME280;67472;51.554;7.812;2024-02-04T00:32:51;101439.16;;;11.59;100.00
78198;BME280;67472;51.554;7.812;2024-02-04T00:35:38;101425.94;;;11.59;100.00
78198;BME280;67472;51.554;7.812;2024-02-04T00:38:25;101428.97;;;11.65;100.00
78198;BME280;67472;51.554;7.812;2024-02-04T00:41:14;101413.19;;;11.64;100.00
78198;BME280;67472;51.554;7.812;2024-02-04T00:44:01;101425.53;;;11.76;100.00
78198;BME280;67472;51.554;7.812;2024-02-04T00:46:47;101416.25;;;11.70;100.00
78198;BME280;67472;51.554;7.812;2024-02-04T00:49:34;101413.16;;;11.53;100.00
78198;BME280;67472;51.554;7.812;2024-02-04T00:52:20;101419.34;;;11.64;100.00
78198;BME280;67472;51.554;7.812;2024-02-04T00:55:08;101417.81;;;11.73;100.00
78198;BME280;67472;51.554;7.812;2024-02-04T00:57:56;101417.91;;;11.60;100.00
78198;BME280;67472;51.554;7.812;2024-02-04T01:00:44;101426.28;;;11.54;100.00
78198;BME280;67472;51.554;7.812;2024-02-04T01:03:31;101417.56;;;11.41;100.00
78198;BME280;67472;51.554;7.812;2024-02-04T01:06:18;101418.59;;;11.51;100.00
78198;BME280;67472;51.554;7.812;2024-02-04T01:09:05;101416.41;;;11.45;100.00
78198;BME280;67472;51.554;7.812;2024-02-04T01:11:51;101418.31;;;11.43;100.00
78198;BME280;67472;51.554;7.812;2024-02-04T01:14:39;101421.03;;;11.65;100.00
78198;BME280;67472;51.554;7.812;2024-02-04T01:17:25;101432.31;;;11.56;100.00
78198;BME280;67472;51.554;7.812;2024-02-04T01:20:11;101421.41;;;11.37;100.00
78198;BME280;67472;51.554;7.812;2024-02-04T01:22:58;101436.72;;;11.45;100.00
78198;BME280;67472;51.554;7.812;2024-02-04T01:25:44;101437.56;;;11.45;100.00
78198;BME280;67472;51.554;7.812;2024-02-04T01:28:30;101435.19;;;11.53;100.00
78198;BME280;67472;51.554;7.812;2024-02-04T01:31:18;101433.00;;;11.47;100.00
78198;BME280;67472;51.554;7.812;2024-02-04T01:34:04;101444.41;;;11.24;100.00
78198;BME280;67472;51.554;7.812;2024-02-04T01:36:50;101452.69;;;11.19;100.00
78198;BME280;67472;51.554;7.812;2024-02-04T01:39:37;101451.19;;;11.28;100.00
78198;BME280;67472;51.554;7.812;2024-02-04T01:42:24;101454.72;;;11.40;100.00
78198;BME280;67472;51.554;7.812;2024-02-04T01:45:10;101455.63;;;11.27;100.00
78198;BME280;67472;51.554;7.812;2024-02-04T01:47:58;101457.59;;;11.37;100.00
78198;BME280;67472;51.554;7.812;2024-02-04T01:50:45;101440.88;;;11.12;100.00
78198;BME280;67472;51.554;7.812;2024-02-04T01:53:34;101455.63;;;11.27;100.00
78198;BME280;67472;51.554;7.812;2024-02-04T01:56:21;101444.31;;;11.25;100.00
78198;BME280;67472;51.554;7.812;2024-02-04T01:59:09;101448.19;;;11.32;100.00
78198;BME280;67472;51.554;7.812;2024-02-04T02:01:59;101448.59;;;11.39;100.00
78198;BME280;67472;51.554;7.812;2024-02-04T02:04:48;101443.78;;;11.20;100.00
78198;BME280;67472;51.554;7.812;2024-02-04T02:07:34;101451.00;;;11.18;100.00
78198;BME280;67472;51.554;7.812;2024-02-04T02:10:21;101450.16;;;11.18;100.00
78198;BME280;67472;51.554;7.812;2024-02-04T02:13:14;101439.94;;;11.13;100.00
78198;BME280;67472;51.554;7.812;2024-02-04T02:16:08;101444.53;;;11.22;100.00
78198;BME280;67472;51.554;7.812;2024-02-04T02:19:00;101445.53;;;11.32;100.00
78198;BME280;67472;51.554;7.812;2024-02-04T02:21:56;101449.63;;;11.25;100.00
78198;BME280;67472;51.554;7.812;2024-02-04T02:24:50;101451.69;;;11.33;100.00
78198;BME280;67472;51.554;7.812;2024-02-04T02:27:46;101443.97;;;11.30;100.00
78198;BME280;67472;51.554;7.812;2024-02-04T02:30:33;101451.66;;;11.09;100.00
78198;BME280;67472;51.554;7.812;2024-02-04T02:33:21;101462.38;;;11.31;100.00
78198;BME280;67472;51.554;7.812;2024-02-04T02:36:13;101459.88;;;11.41;100.00
78198;BME280;67472;51.554;7.812;2024-02-04T02:39:13;101447.06;;;11.48;100.00
78198;BME280;67472;51.554;7.812;2024-02-04T02:42:04;101455.06;;;11.35;100.00
78198;BME280;67472;51.554;7.812;2024-02-04T02:44:52;101454.00;;;11.38;100.00
78198;BME280;67472;51.554;7.812;2024-02-04T02:47:40;101458.94;;;11.42;100.00
78198;BME280;67472;51.554;7.812;2024-02-04T02:50:28;101453.75;;;11.41;100.00
78198;BME280;67472;51.554;7.812;2024-02-04T02:53:15;101442.44;;;11.39;100.00
78198;BME280;67472;51.554;7.812;2024-02-04T02:56:05;101429.84;;;11.42;100.00
78198;BME280;67472;51.554;7.812;2024-02-04T02:58:56;101438.50;;;11.44;100.00
78198;BME280;67472;51.554;7.812;2024-02-04T03:01:42;101443.94;;;11.43;100.00
78198;BME280;67472;51.554;7.812;2024-02-04T03:04:28;101435.72;;;11.34;100.00
78198;BME280;67472;51.554;7.812;2024-02-04T03:07:14;101430.91;;;11.40;100.00
78198;BME280;67472;51.554;7.812;2024-02-04T03:10:00;101445.31;;;11.35;100.00
78198;BME280;67472;51.554;7.812;2024-02-04T03:12:47;101440.78;;;11.38;100.00
78198;BME280;67472;51.554;7.812;2024-02-04T03:15:35;101430.47;;;11.46;100.00
78198;BME280;67472;51.554;7.812;2024-02-04T03:18:22;101432.94;;;11.36;100.00
78198;BME280;67472;51.554;7.812;2024-02-04T03:21:12;101434.38;;;11.64;100.00
78198;BME280;67472;51.554;7.812;2024-02-04T03:23:59;101420.56;;;11.37;100.00
78198;BME280;67472;51.554;7.812;2024-02-04T03:26:47;101425.63;;;11.40;100.00
78198;BME280;67472;51.554;7.812;2024-02-04T03:29:33;101423.19;;;11.60;100.00
78198;BME280;67472;51.554;7.812;2024-02-04T03:32:21;101424.09;;;11.48;100.00
78198;BME280;67472;51.554;7.812;2024-02-04T03:35:08;101420.25;;;11.52;100.00
78198;BME280;67472;51.554;7.812;2024-02-04T03:37:55;101419.69;;;11.60;100.00
78198;BME280;67472;51.554;7.812;2024-02-04T03:40:41;101429.69;;;11.67;100.00
78198;BME280;67472;51.554;7.812;2024-02-04T03:43:28;101424.53;;;11.66;100.00
78198;BME280;67472;51.554;7.812;2024-02-04T03:46:14;101423.75;;;11.53;100.00
78198;BME280;67472;51.554;7.812;2024-02-04T03:49:03;101404.22;;;11.66;100.00
78198;BME280;67472;51.554;7.812;2024-02-04T03:51:49;101397.41;;;11.51;100.00
78198;BME280;67472;51.554;7.812;2024-02-04T03:54:35;101398.16;;;11.64;100.00
78198;BME280;67472;51.554;7.812;2024-02-04T03:57:22;101407.31;;;11.60;100.00
78198;BME280;67472;51.554;7.812;2024-02-04T04:00:09;101395.75;;;11.61;100.00
78198;BME280;67472;51.554;7.812;2024-02-04T04:02:58;101397.69;;;11.59;100.00
78198;BME280;67472;51.554;7.812;2024-02-04T04:05:46;101413.31;;;11.86;100.00
78198;BME280;67472;51.554;7.812;2024-02-04T04:08:32;101413.72;;;11.69;100.00
78198;BME280;67472;51.554;7.812;2024-02-04T04:11:19;101413.94;;;11.66;100.00
78198;BME280;67472;51.554;7.812;2024-02-04T04:14:07;101407.41;;;11.59;100.00
78198;BME280;67472;51.554;7.812;2024-02-04T04:16:53;101406.53;;;11.71;100.00
78198;BME280;67472;51.554;7.812;2024-02-04T04:19:39;101392.34;;;11.72;100.00
78198;BME280;67472;51.554;7.812;2024-02-04T04:22:28;101393.28;;;11.71;100.00
78198;BME280;67472;51.554;7.812;2024-02-04T04:25:14;101397.94;;;11.67;100.00
78198;BME280;67472;51.554;7.812;2024-02-04T04:28:01;101390.34;;;11.63;100.00
78198;BME280;67472;51.554;7.812;2024-02-04T04:30:51;101390.53;;;11.72;100.00
78198;BME280;67472;51.554;7.812;2024-02-04T04:33:37;101388.31;;;11.66;100.00
78198;BME280;67472;51.554;7.812;2024-02-04T04:36:23;101389.47;;;11.75;100.00
78198;BME280;67472;51.554;7.812;2024-02-04T04:39:11;101382.47;;;11.74;100.00
78198;BME280;67472;51.554;7.812;2024-02-04T04:41:58;101378.47;;;11.68;100.00
78198;BME280;67472;51.554;7.812;2024-02-04T04:44:45;101383.56;;;11.71;100.00
78198;BME280;67472;51.554;7.812;2024-02-04T04:47:33;101392.34;;;11.72;100.00
78198;BME280;67472;51.554;7.812;2024-02-04T04:50:19;101394.53;;;11.54;100.00
78198;BME280;67472;51.554;7.812;2024-02-04T04:53:06;101393.09;;;11.61;100.00
78198;BME280;67472;51.554;7.812;2024-02-04T04:55:54;101387.34;;;11.67;100.00
78198;BME280;67472;51.554;7.812;2024-02-04T04:58:40;101386.59;;;11.78;100.00
78198;BME280;67472;51.554;7.812;2024-02-04T05:01:28;101370.63;;;11.67;100.00
78198;BME280;67472;51.554;7.812;2024-02-04T05:04:15;101372.25;;;11.69;100.00
78198;BME280;67472;51.554;7.812;2024-02-04T05:07:02;101383.38;;;11.62;100.00
78198;BME280;67472;51.554;7.812;2024-02-04T05:09:48;101383.84;;;11.67;100.00
78198;BME280;67472;51.554;7.812;2024-02-04T05:12:36;101378.47;;;11.68;100.00
78198;BME280;67472;51.554;7.812;2024-02-04T05:15:23;101380.94;;;11.59;100.00
78198;BME280;67472;51.554;7.812;2024-02-04T05:18:12;101390.59;;;11.60;100.00
78198;BME280;67472;51.554;7.812;2024-02-04T05:20:58;101377.81;;;11.54;100.00
78198;BME280;67472;51.554;7.812;2024-02-04T05:23:47;101376.41;;;11.61;100.00
78198;BME280;67472;51.554;7.812;2024-02-04T05:26:34;101371.47;;;11.67;100.00
78198;BME280;67472;51.554;7.812;2024-02-04T05:29:22;101384.09;;;11.64;100.00
78198;BME280;67472;51.554;7.812;2024-02-04T05:32:08;101384.69;;;11.56;100.00
78198;BME280;67472;51.554;7.812;2024-02-04T05:34:56;101371.44;;;11.56;100.00
78198;BME280;67472;51.554;7.812;2024-02-04T05:37:42;101366.06;;;11.58;100.00
78198;BME280;67472;51.554;7.812;2024-02-04T05:40:28;101366.16;;;11.56;100.00
78198;BME280;67472;51.554;7.812;2024-02-04T05:43:14;101362.88;;;11.42;100.00
78198;BME280;67472;51.554;7.812;2024-02-04T05:46:03;101364.59;;;11.54;100.00
78198;BME280;67472;51.554;7.812;2024-02-04T05:48:50;101380.22;;;11.57;100.00
78198;BME280;67472;51.554;7.812;2024-02-04T05:51:38;101367.66;;;11.37;100.00
78198;BME280;67472;51.554;7.812;2024-02-04T05:54:25;101371.84;;;11.28;100.00
78198;BME280;67472;51.554;7.812;2024-02-04T05:57:12;101390.66;;;11.47;100.00
78198;BME280;67472;51.554;7.812;2024-02-04T05:59:58;101375.59;;;11.37;100.00
78198;BME280;67472;51.554;7.812;2024-02-04T06:02:46;101394.44;;;11.32;100.00
78198;BME280;67472;51.554;7.812;2024-02-04T06:05:33;101402.38;;;11.32;100.00
78198;BME280;67472;51.554;7.812;2024-02-04T06:08:19;101411.16;;;11.32;100.00
78198;BME280;67472;51.554;7.812;2024-02-04T06:11:09;101406.50;;;11.36;100.00
78198;BME280;67472;51.554;7.812;2024-02-04T06:13:55;101422.53;;;11.46;100.00
78198;BME280;67472;51.554;7.812;2024-02-04T06:16:42;101412.63;;;11.37;100.00
78198;BME280;67472;51.554;7.812;2024-02-04T06:19:29;101396.34;;;11.54;100.00
78198;BME280;67472;51.554;7.812;2024-02-04T06:22:15;101377.41;;;11.36;100.00
78198;BME280;67472;51.554;7.812;2024-02-04T06:25:02;101384.25;;;11.39;100.00
78198;BME280;67472;51.554;7.812;2024-02-04T06:27:49;101387.63;;;11.41;100.00
78198;BME280;67472;51.554;7.812;2024-02-04T06:30:36;101387.59;;;11.29;100.00
78198;BME280;67472;51.554;7.812;2024-02-04T06:33:22;101396.38;;;11.30;100.00
78198;BME280;67472;51.554;7.812;2024-02-04T06:36:11;101392.19;;;11.39;100.00
78198;BME280;67472;51.554;7.812;2024-02-04T06:38:58;101386.81;;;11.40;100.00
78198;BME280;67472;51.554;7.812;2024-02-04T06:41:44;101386.47;;;11.21;100.00
78198;BME280;67472;51.554;7.812;2024-02-04T06:44:30;101372.16;;;11.23;100.00
78198;BME280;67472;51.554;7.812;2024-02-04T06:47:17;101363.81;;;11.41;100.00
78198;BME280;67472;51.554;7.812;2024-02-04T06:50:03;101337.00;;;11.34;100.00
78198;BME280;67472;51.554;7.812;2024-02-04T06:52:51;101332.91;;;11.41;100.00
78198;BME280;67472;51.554;7.812;2024-02-04T06:55:37;101333.13;;;11.27;100.00
78198;BME280;67472;51.554;7.812;2024-02-04T06:58:24;101329.31;;;11.42;100.00
78198;BME280;67472;51.554;7.812;2024-02-04T07:01:14;101320.38;;;11.32;100.00
78198;BME280;67472;51.554;7.812;2024-02-04T07:04:01;101310.16;;;11.27;100.00
78198;BME280;67472;51.554;7.812;2024-02-04T07:06:47;101305.06;;;11.13;100.00
78198;BME280;67472;51.554;7.812;2024-02-04T07:09:35;101316.41;;;11.26;100.00
78198;BME280;67472;51.554;7.812;2024-02-04T07:12:23;101314.94;;;11.11;100.00
78198;BME280;67472;51.554;7.812;2024-02-04T07:15:09;101327.72;;;11.28;100.00
78198;BME280;67472;51.554;7.812;2024-02-04T07:17:56;101336.84;;;11.24;100.00
78198;BME280;67472;51.554;7.812;2024-02-04T07:20:41;101341.78;;;11.29;100.00
78198;BME280;67472;51.554;7.812;2024-02-04T07:23:28;101342.53;;;11.31;100.00
78198;BME280;67472;51.554;7.812;2024-02-04T07:26:17;101352.13;;;11.32;100.00
78198;BME280;67472;51.554;7.812;2024-02-04T07:29:03;101350.91;;;11.25;100.00
78198;BME280;67472;51.554;7.812;2024-02-04T07:31:49;101342.91;;;11.38;100.00
78198;BME280;67472;51.554;7.812;2024-02-04T07:34:35;101345.50;;;11.26;100.00
78198;BME280;67472;51.554;7.812;2024-02-04T07:37:23;101343.25;;;11.33;100.00
78198;BME280;67472;51.554;7.812;2024-02-04T07:40:10;101331.34;;;11.39;100.00
78198;BME280;67472;51.554;7.812;2024-02-04T07:42:58;101335.69;;;11.40;100.00
78198;BME280;67472;51.554;7.812;2024-02-04T07:45:44;101341.97;;;11.50;100.00
78198;BME280;67472;51.554;7.812;2024-02-04T07:48:31;101335.59;;;11.52;100.00
78198;BME280;67472;51.554;7.812;2024-02-04T07:51:17;101319.88;;;11.62;100.00
78198;BME280;67472;51.554;7.812;2024-02-04T07:54:05;101317.94;;;11.64;100.00
78198;BME280;67472;51.554;7.812;2024-02-04T07:56:55;101314.09;;;11.68;100.00
78198;BME280;67472;51.554;7.812;2024-02-04T07:59:43;101302.91;;;11.64;100.00
78198;BME280;67472;51.554;7.812;2024-02-04T08:02:30;101309.13;;;11.52;100.00
78198;BME280;67472;51.554;7.812;2024-02-04T08:05:16;101313.00;;;11.59;100.00
78198;BME280;67472;51.554;7.812;2024-02-04T08:08:03;101314.84;;;11.70;100.00
78198;BME280;67472;51.554;7.812;2024-02-04T08:10:50;101312.28;;;11.57;100.00
78198;BME280;67472;51.554;7.812;2024-02-04T08:13:37;101316.03;;;11.66;100.00
78198;BME280;67472;51.554;7.812;2024-02-04T08:16:25;101312.09;;;11.71;100.00
78198;BME280;67472;51.554;7.812;2024-02-04T08:19:12;101294.28;;;11.73;100.00
78198;BME280;67472;51.554;7.812;2024-02-04T08:21:58;101291.88;;;11.81;100.00
78198;BME280;67472;51.554;7.812;2024-02-04T08:24:45;101287.66;;;11.79;100.00
78198;BME280;67472;51.554;7.812;2024-02-04T08:27:31;101281.72;;;11.64;100.00
78198;BME280;67472;51.554;7.812;2024-02-04T08:30:18;101284.78;;;11.71;100.00
78198;BME280;67472;51.554;7.812;2024-02-04T08:33:07;101284.56;;;11.85;100.00
78198;BME280;67472;51.554;7.812;2024-02-04T08:35:54;101276.13;;;11.80;100.00
78198;BME280;67472;51.554;7.812;2024-02-04T08:38:40;101288.53;;;11.90;100.00
78198;BME280;67472;51.554;7.812;2024-02-04T08:41:27;101276.47;;;11.75;100.00
78198;BME280;67472;51.554;7.812;2024-02-04T08:44:13;101278.78;;;11.80;100.00
78198;BME280;67472;51.554;7.812;2024-02-04T08:47:00;101285.78;;;11.81;100.00
78198;BME280;67472;51.554;7.812;2024-02-04T08:49:49;101285.84;;;11.57;100.00
78198;BME280;67472;51.554;7.812;2024-02-04T08:52:35;101298.81;;;11.49;100.00
78198;BME280;67472;51.554;7.812;2024-02-04T08:55:22;101286.41;;;11.50;100.00
78198;BME280;67472;51.554;7.812;2024-02-04T08:58:08;101293.53;;;11.49;100.00
78198;BME280;67472;51.554;7.812;2024-02-04T09:00:54;101298.06;;;11.47;100.00
78198;BME280;67472;51.554;7.812;2024-02-04T09:03:42;101301.25;;;11.63;100.00
78198;BME280;67472;51.554;7.812;2024-02-04T09:06:30;101298.63;;;11.74;100.00
78198;BME280;67472;51.554;7.812;2024-02-04T09:09:16;101300.16;;;11.66;100.00
78198;BME280;67472;51.554;7.812;2024-02-04T09:12:03;101296.31;;;11.70;100.00
78198;BME280;67472;51.554;7.812;2024-02-04T09:14:50;101285.75;;;11.70;100.00
78198;BME280;67472;51.554;7.812;2024-02-04T09:17:36;101279.72;;;11.79;100.00
78198;BME280;67472;51.554;7.812;2024-02-04T09:20:22;101278.41;;;11.84;100.00
78198;BME280;67472;51.554;7.812;2024-02-04T09:23:13;101270.56;;;12.16;100.00
78198;BME280;67472;51.554;7.812;2024-02-04T09:26:00;101266.50;;;12.01;100.00
78198;BME280;67472;51.554;7.812;2024-02-04T09:28:46;101265.78;;;11.99;100.00
78198;BME280;67472;51.554;7.812;2024-02-04T09:31:35;101255.31;;;11.86;100.00
78198;BME280;67472;51.554;7.812;2024-02-04T09:34:21;101255.66;;;11.93;100.00
78198;BME280;67472;51.554;7.812;2024-02-04T09:37:08;101251.56;;;12.00;100.00
78198;BME280;67472;51.554;7.812;2024-02-04T09:39:56;101239.19;;;12.01;100.00
78198;BME280;67472;51.554;7.812;2024-02-04T09:42:42;101237.38;;;12.01;100.00
78198;BME280;67472;51.554;7.812;2024-02-04T09:45:29;101233.28;;;11.97;100.00
78198;BME280;67472;51.554;7.812;2024-02-04T09:48:18;101229.19;;;12.15;100.00
78198;BME280;67472;51.554;7.812;2024-02-04T09:51:08;101229.78;;;12.08;100.00
78198;BME280;67472;51.554;7.812;2024-02-04T09:53:58;101217.88;;;12.02;100.00
78198;BME280;67472;51.554;7.812;2024-02-04T09:56:51;101227.97;;;12.08;100.00
78198;BME280;67472;51.554;7.812;2024-02-04T09:59:38;101231.00;;;11.81;100.00
78198;BME280;67472;51.554;7.812;2024-02-04T10:02:24;101247.75;;;11.71;100.00
78198;BME280;67472;51.554;7.812;2024-02-04T10:05:11;101254.69;;;11.61;100.00
78198;BME280;67472;51.554;7.812;2024-02-04T10:07:58;101266.47;;;11.46;100.00
78198;BME280;67472;51.554;7.812;2024-02-04T10:10:45;101274.00;;;11.28;100.00
78198;BME280;67472;51.554;7.812;2024-02-04T10:13:44;101279.66;;;11.34;100.00
78198;BME280;67472;51.554;7.812;2024-02-04T10:16:30;101294.78;;;11.32;100.00
78198;BME280;67472;51.554;7.812;2024-02-04T10:19:17;101298.13;;;11.23;100.00
78198;BME280;67472;51.554;7.812;2024-02-04T10:22:04;101298.31;;;11.09;100.00
78198;BME280;67472;51.554;7.812;2024-02-04T10:24:52;101306.72;;;11.03;100.00
78198;BME280;67472;51.554;7.812;2024-02-04T10:27:41;101299.97;;;10.99;100.00
78198;BME280;67472;51.554;7.812;2024-02-04T10:30:32;101304.28;;;11.00;100.00
78198;BME280;67472;51.554;7.812;2024-02-04T10:33:20;101318.22;;;10.91;100.00
78198;BME280;67472;51.554;7.812;2024-02-04T10:36:08;101327.75;;;10.81;100.00
78198;BME280;67472;51.554;7.812;2024-02-04T10:38:55;101336.41;;;10.83;100.00
78198;BME280;67472;51.554;7.812;2024-02-04T10:41:45;101335.88;;;10.91;100.00
78198;BME280;67472;51.554;7.812;2024-02-04T10:44:35;101328.44;;;10.96;100.00
78198;BME280;67472;51.554;7.812;2024-02-04T10:47:30;101316.69;;;11.00;100.00
78198;BME280;67472;51.554;7.812;2024-02-04T10:50:18;101315.00;;;10.99;100.00
78198;BME280;67472;51.554;7.812;2024-02-04T10:53:05;101320.78;;;11.04;100.00
78198;BME280;67472;51.554;7.812;2024-02-04T10:55:54;101320.13;;;11.24;100.00
78198;BME280;67472;51.554;7.812;2024-02-04T10:58:46;101321.81;;;11.25;100.00
78198;BME280;67472;51.554;7.812;2024-02-04T11:01:33;101312.19;;;11.24;100.00
78198;BME280;67472;51.554;7.812;2024-02-04T11:04:21;101313.00;;;11.48;100.00
78198;BME280;67472;51.554;7.812;2024-02-04T11:07:10;101308.03;;;11.44;100.00
78198;BME280;67472;51.554;7.812;2024-02-04T11:09:57;101308.84;;;11.22;100.00
78198;BME280;67472;51.554;7.812;2024-02-04T11:12:44;101311.66;;;11.43;100.00
78198;BME280;67472;51.554;7.812;2024-02-04T11:15:36;101300.47;;;11.39;100.00
78198;BME280;67472;51.554;7.812;2024-02-04T11:18:50;101309.25;;;11.51;100.00
78198;BME280;67472;51.554;7.812;2024-02-04T11:22:29;101305.53;;;11.53;100.00
78198;BME280;67472;51.554;7.812;2024-02-04T11:28:51;101312.28;;;11.57;100.00
78198;BME280;67472;51.554;7.812;2024-02-04T11:31:39;101305.47;;;11.77;100.00
78198;BME280;67472;51.554;7.812;2024-02-04T11:34:25;101303.31;;;11.82;100.00
78198;BME280;67472;51.554;7.812;2024-02-04T11:37:16;101303.81;;;12.09;100.00
78198;BME280;67472;51.554;7.812;2024-02-04T11:40:07;101287.78;;;12.11;100.00
78198;BME280;67472;51.554;7.812;2024-02-04T11:43:03;101273.09;;;12.18;100.00
78198;BME280;67472;51.554;7.812;2024-02-04T11:45:51;101258.06;;;12.18;100.00
78198;BME280;67472;51.554;7.812;2024-02-04T11:48:40;101248.59;;;12.36;100.00
78198;BME280;67472;51.554;7.812;2024-02-04T11:51:26;101239.38;;;12.20;100.00
78198;BME280;67472;51.554;7.812;2024-02-04T11:54:14;101214.44;;;12.22;100.00
78198;BME280;67472;51.554;7.812;2024-02-04T11:57:03;101210.81;;;12.34;100.00
78198;BME280;67472;51.554;7.812;2024-02-04T11:59:50;101199.88;;;12.28;100.00
78198;BME280;67472;51.554;7.812;2024-02-04T12:02:37;101188.22;;;12.30;100.00
78198;BME280;67472;51.554;7.812;2024-02-04T12:05:24;101180.38;;;12.29;100.00
78198;BME280;67472;51.554;7.812;2024-02-04T12:08:11;101179.88;;;12.35;100.00
78198;BME280;67472;51.554;7.812;2024-02-04T12:10:59;101175.72;;;12.21;100.00
78198;BME280;67472;51.554;7.812;2024-02-04T12:13:47;101179.47;;;12.19;100.00
78198;BME280;67472;51.554;7.812;2024-02-04T12:16:37;101179.06;;;12.23;100.00
78198;BME280;67472;51.554;7.812;2024-02-04T12:19:25;101170.34;;;12.01;100.00
78198;BME280;67472;51.554;7.812;2024-02-04T12:22:12;101166.22;;;12.08;100.00
78198;BME280;67472;51.554;7.812;2024-02-04T12:25:00;101167.16;;;12.18;100.00
78198;BME280;67472;51.554;7.812;2024-02-04T12:27:46;101153.88;;;12.29;100.00
78198;BME280;67472;51.554;7.812;2024-02-04T12:30:35;101146.47;;;12.43;100.00
78198;BME280;67472;51.554;7.812;2024-02-04T12:33:22;101157.38;;;12.29;100.00
78198;BME280;67472;51.554;7.812;2024-02-04T12:36:09;101146.88;;;12.07;100.00
78198;BME280;67472;51.554;7.812;2024-02-04T12:38:56;101166.66;;;12.24;100.00
78198;BME280;67472;51.554;7.812;2024-02-04T12:41:42;101171.16;;;12.12;100.00
78198;BME280;67472;51.554;7.812;2024-02-04T12:44:29;101166.97;;;12.10;100.00
78198;BME280;67472;51.554;7.812;2024-02-04T12:47:20;101158.97;;;12.21;100.00
78198;BME280;67472;51.554;7.812;2024-02-04T12:50:07;101149.25;;;12.10;100.00
78198;BME280;67472;51.554;7.812;2024-02-04T12:53:03;101164.72;;;12.26;100.00
78198;BME280;67472;51.554;7.812;2024-02-04T12:55:57;101160.22;;;12.37;100.00
78198;BME280;67472;51.554;7.812;2024-02-04T12:58:44;101167.56;;;12.02;100.00
78198;BME280;67472;51.554;7.812;2024-02-04T13:01:32;101172.81;;;12.24;100.00
78198;BME280;67472;51.554;7.812;2024-02-04T13:04:20;101159.72;;;12.12;100.00
78198;BME280;67472;51.554;7.812;2024-02-04T13:07:07;101159.84;;;12.10;100.00
78198;BME280;67472;51.554;7.812;2024-02-04T13:09:58;101171.22;;;12.22;100.00
78198;BME280;67472;51.554;7.812;2024-02-04T13:12:45;101153.22;;;12.05;100.00
78198;BME280;67472;51.554;7.812;2024-02-04T13:15:32;101151.44;;;12.05;100.00
78198;BME280;67472;51.554;7.812;2024-02-04T13:18:19;101149.75;;;12.04;100.00
78198;BME280;67472;51.554;7.812;2024-02-04T13:21:07;101141.47;;;11.98;100.00
78198;BME280;67472;51.554;7.812;2024-02-04T13:23:53;101161.53;;;12.11;100.00
78198;BME280;67472;51.554;7.812;2024-02-04T13:26:40;101166.31;;;12.17;100.00
78198;BME280;67472;51.554;7.812;2024-02-04T13:29:26;101177.88;;;12.27;100.00
78198;BME280;67472;51.554;7.812;2024-02-04T13:32:16;101171.81;;;12.25;100.00
78198;BME280;67472;51.554;7.812;2024-02-04T13:35:02;101184.88;;;12.17;100.00
78198;BME280;67472;51.554;7.812;2024-02-04T13:37:51;101198.00;;;12.19;100.00
78198;BME280;67472;51.554;7.812;2024-02-04T13:40:38;101200.75;;;12.17;100.00
78198;BME280;67472;51.554;7.812;2024-02-04T13:43:25;101200.97;;;12.25;100.00
78198;BME280;67472;51.554;7.812;2024-02-04T13:46:11;101196.78;;;12.12;100.00
78198;BME280;67472;51.554;7.812;2024-02-04T13:48:57;101180.44;;;12.07;100.00
78198;BME280;67472;51.554;7.812;2024-02-04T13:51:44;101183.16;;;12.16;100.00
78198;BME280;67472;51.554;7.812;2024-02-04T13:54:40;101180.63;;;12.26;100.00
78198;BME280;67472;51.554;7.812;2024-02-04T13:57:26;101167.47;;;12.04;100.00
78198;BME280;67472;51.554;7.812;2024-02-04T14:00:13;101168.81;;;12.30;100.00
78198;BME280;67472;51.554;7.812;2024-02-04T14:03:00;101179.56;;;12.17;100.00
78198;BME280;67472;51.554;7.812;2024-02-04T14:05:46;101181.28;;;12.07;100.00
78198;BME280;67472;51.554;7.812;2024-02-04T14:08:32;101187.16;;;12.11;100.00
78198;BME280;67472;51.554;7.812;2024-02-04T14:11:22;101200.66;;;12.08;100.00
78198;BME280;67472;51.554;7.812;2024-02-04T14:14:09;101199.97;;;11.95;100.00
78198;BME280;67472;51.554;7.812;2024-02-04T14:16:57;101195.84;;;12.02;100.00
78198;BME280;67472;51.554;7.812;2024-02-04T14:19:44;101208.59;;;12.08;100.00
78198;BME280;67472;51.554;7.812;2024-02-04T14:22:34;101191.63;;;11.99;100.00
78198;BME280;67472;51.554;7.812;2024-02-04T14:25:20;101193.91;;;12.15;100.00
78198;BME280;67472;51.554;7.812;2024-02-04T14:28:10;101202.22;;;11.99;100.00
78198;BME280;67472;51.554;7.812;2024-02-04T14:30:56;101224.97;;;12.02;100.00